Time;durP1;ratioP1;P1;durP2;ratioP2;P2;SDS_P1;SDS_P2;PMS_P1;PMS_P2;Temp;Humidity;BMP_temperature;BMP_pressure;BME280_temperature;BME280_humidity;BME280_pressure;Samples;Min_cycle;Max_cycle;Signal;HPM_P1;HPM_P2
2021/11/28 00:02:05;;;;;;;12.35;9.75;;;;;;;-0.70;100.00;93941.09;5089039;28;20440;-60
2021/11/28 00:04:31;;;;;;;12.18;8.95;;;;;;;-0.70;100.00;93941.09;5089765;28;20071;-59
2021/11/28 00:07:09;;;;;;;11.93;9.80;;;;;;;-0.69;100.00;93941.91;5091803;28;20106;-60
2021/11/28 00:14:44;;;;;;;13.55;12.25;;;;;;;-0.57;100.00;93928.06;5090604;28;20106;-60
2021/11/28 00:17:12;;;;;;;13.27;11.85;;;;;;;-0.57;100.00;93930.66;5085290;28;20656;-60
2021/11/28 00:19:38;;;;;;;14.07;12.05;;;;;;;-0.52;100.00;93925.13;5093127;28;20137;-60
2021/11/28 00:22:05;;;;;;;14.98;11.30;;;;;;;-0.49;100.00;93923.13;5089338;28;20537;-60
2021/11/28 00:24:30;;;;;;;14.18;11.88;;;;;;;-0.48;100.00;93929.13;5089947;28;20043;-60
2021/11/28 00:26:56;;;;;;;12.85;11.63;;;;;;;-0.55;100.00;93920.19;5089808;28;20601;-60
2021/11/28 00:29:21;;;;;;;13.60;12.23;;;;;;;-0.58;100.00;93914.31;5092525;28;20049;-60
2021/11/28 00:31:47;;;;;;;13.13;11.73;;;;;;;-0.60;100.00;93916.19;5090427;28;20043;-60
2021/11/28 00:34:12;;;;;;;14.77;12.80;;;;;;;-0.66;100.00;93928.78;5092203;28;20152;-60
2021/11/28 00:36:38;;;;;;;14.65;13.07;;;;;;;-0.68;100.00;93925.47;5090212;28;20051;-60
2021/11/28 00:39:03;;;;;;;14.55;13.02;;;;;;;-0.68;100.00;93931.47;5090895;28;20119;-60
2021/11/28 00:41:29;;;;;;;15.95;14.27;;;;;;;-0.70;100.00;93932.50;5089314;28;20069;-60
2021/11/28 00:43:54;;;;;;;18.35;14.55;;;;;;;-0.67;100.00;93933.13;5090208;28;20040;-60
2021/11/28 00:46:19;;;;;;;15.85;14.20;;;;;;;-0.68;100.00;93931.47;5092751;28;20088;-60
2021/11/28 00:48:45;;;;;;;18.85;13.88;;;;;;;-0.73;100.00;93928.41;5087749;28;20036;-60
2021/11/28 00:53:49;;;;;;;17.33;15.18;;;;;;;-0.74;100.00;93937.13;5093583;28;20085;-59
2021/11/28 00:56:15;;;;;;;26.92;20.92;;;;;;;-0.81;100.00;93934.16;5090902;28;20040;-60
2021/11/28 00:58:40;;;;;;;18.92;16.55;;;;;;;-0.84;100.00;93923.22;5086611;28;20127;-60
2021/11/28 01:01:07;;;;;;;18.67;15.07;;;;;;;-0.88;100.00;93928.63;5090076;28;20122;-59
2021/11/28 01:03:32;;;;;;;16.95;14.23;;;;;;;-0.83;100.00;93930.03;5070463;28;20048;-60
2021/11/28 01:05:58;;;;;;;20.27;14.40;;;;;;;-0.82;100.00;93931.69;5090109;28;20047;-60
2021/11/28 01:08:23;;;;;;;22.27;18.75;;;;;;;-0.85;100.00;93925.00;5089821;28;21048;-60
2021/11/28 01:10:50;;;;;;;25.95;22.58;;;;;;;-0.84;100.00;93925.81;5086972;28;20064;-60
2021/11/28 01:13:17;;;;;;;24.88;20.40;;;;;;;-0.83;100.00;93930.03;5085337;28;20048;-60
2021/11/28 01:15:43;;;;;;;22.80;19.92;;;;;;;-0.81;100.00;93920.41;5087786;28;20040;-60
2021/11/28 01:18:09;;;;;;;23.90;19.25;;;;;;;-0.78;100.00;93927.94;5087521;28;20141;-60
2021/11/28 01:20:34;;;;;;;19.85;17.67;;;;;;;-0.79;100.00;93924.53;5090784;28;20105;-59
2021/11/28 01:23:00;;;;;;;18.83;16.83;;;;;;;-0.77;100.00;93929.59;5087044;28;20036;-60
2021/11/28 01:25:26;;;;;;;20.80;16.73;;;;;;;-0.78;100.00;93931.34;5089990;28;20107;-60
2021/11/28 01:27:51;;;;;;;20.77;16.50;;;;;;;-0.80;100.00;93932.38;5091723;28;20067;-60
2021/11/28 01:30:17;;;;;;;15.82;13.98;;;;;;;-0.81;100.00;93930.75;5089690;28;20030;-60
2021/11/28 01:32:43;;;;;;;15.18;13.73;;;;;;;-0.82;100.00;93929.09;5091271;28;20560;-60
2021/11/28 01:35:11;;;;;;;14.82;13.15;;;;;;;-0.84;100.00;93937.00;5089329;28;20028;-60
2021/11/28 01:37:39;;;;;;;22.27;15.65;;;;;;;-0.85;100.00;93939.69;5091510;28;20442;-60
2021/11/28 01:40:07;;;;;;;20.23;15.45;;;;;;;-0.82;100.00;93935.09;5087560;28;20543;-60
2021/11/28 01:42:45;;;;;;;20.88;15.60;;;;;;;-0.70;100.00;93938.53;5089383;28;20048;-60
2021/11/28 01:45:15;;;;;;;20.33;15.93;;;;;;;-0.68;100.00;93943.56;5085800;28;20024;-60
2021/11/28 01:47:41;;;;;;;20.00;16.77;;;;;;;-0.74;100.00;93942.28;5091896;28;20052;-60
2021/11/28 01:50:07;;;;;;;24.80;19.45;;;;;;;-0.75;100.00;93943.22;5091051;28;20031;-60
2021/11/28 01:52:35;;;;;;;21.48;16.77;;;;;;;-0.76;100.00;93944.97;5089486;28;20056;-60
2021/11/28 01:55:01;;;;;;;16.80;13.85;;;;;;;-0.79;100.00;93937.47;5090345;28;20028;-60
2021/11/28 01:57:27;;;;;;;16.90;14.55;;;;;;;-0.77;100.00;93945.09;5088684;28;20038;-60
2021/11/28 01:59:52;;;;;;;20.75;15.63;;;;;;;-0.79;100.00;93936.63;5091208;28;20041;-60
2021/11/28 02:02:18;;;;;;;19.48;16.30;;;;;;;-0.80;100.00;93945.31;5086878;28;20116;-60
2021/11/28 02:04:45;;;;;;;17.88;16.02;;;;;;;-0.83;100.00;93941.22;5091311;28;20066;-60
2021/11/28 02:07:12;;;;;;;17.40;15.52;;;;;;;-0.84;100.00;93946.47;5090812;28;20024;-61
2021/11/28 02:09:38;;;;;;;17.77;14.60;;;;;;;-0.85;100.00;93955.19;5088574;28;20024;-60
2021/11/28 02:12:06;;;;;;;20.65;18.33;;;;;;;-0.87;100.00;93950.13;5087063;28;20036;-60
2021/11/28 02:14:31;;;;;;;17.60;15.77;;;;;;;-0.87;100.00;93956.13;5088394;28;20055;-60
2021/11/28 02:16:56;;;;;;;17.77;14.27;;;;;;;-0.80;100.00;93955.66;5090309;28;20511;-60
2021/11/28 02:19:22;;;;;;;19.42;15.88;;;;;;;-0.78;100.00;93951.19;5087548;28;20040;-60
2021/11/28 02:21:47;;;;;;;15.98;14.00;;;;;;;-0.82;100.00;93957.53;5068770;28;20467;-60
2021/11/28 02:24:13;;;;;;;14.98;13.50;;;;;;;-0.87;100.00;93950.13;5096835;28;20418;-60
2021/11/28 02:26:38;;;;;;;15.93;14.32;;;;;;;-0.88;100.00;93949.31;5079248;28;20059;-59
2021/11/28 02:29:04;;;;;;;14.57;13.18;;;;;;;-0.88;100.00;93957.06;5093724;28;20036;-60
2021/11/28 02:31:29;;;;;;;16.50;14.77;;;;;;;-0.80;100.00;93953.91;5096726;28;20104;-60
2021/11/28 02:33:54;;;;;;;17.02;14.10;;;;;;;-0.70;100.00;93958.38;5092796;28;20028;-60
2021/11/28 02:36:20;;;;;;;19.58;13.50;;;;;;;-0.77;100.00;93960.63;5092478;28;20042;-59
2021/11/28 02:38:45;;;;;;;16.95;14.93;;;;;;;-0.75;100.00;93961.31;5095542;28;20040;-60
2021/11/28 02:41:11;;;;;;;11.60;10.50;;;;;;;-0.62;100.00;93953.44;5093623;28;20419;-60
2021/11/28 02:43:36;;;;;;;11.82;10.48;;;;;;;-0.81;100.00;93961.75;5093687;28;20115;-60
2021/11/28 02:46:05;;;;;;;12.55;10.40;;;;;;;-0.90;100.00;93958.94;5075889;28;20085;-60
2021/11/28 02:48:31;;;;;;;9.98;8.98;;;;;;;-0.91;100.00;93953.88;5091701;28;20066;-60
2021/11/28 02:50:59;;;;;;;11.02;10.05;;;;;;;-0.90;100.00;93958.94;5095018;28;20082;-60
2021/11/28 02:53:25;;;;;;;9.52;8.63;;;;;;;-0.90;100.00;93958.94;5093056;28;20032;-59
2021/11/28 02:55:55;;;;;;;8.85;8.05;;;;;;;-0.91;100.00;93962.47;5092210;28;20086;-60
2021/11/28 02:58:22;;;;;;;10.10;9.18;;;;;;;-0.90;100.00;93958.94;5088043;28;20094;-60
2021/11/28 03:01:00;;;;;;;9.63;8.82;;;;;;;-0.88;100.00;93948.50;5092052;28;20038;-60
2021/11/28 03:03:26;;;;;;;13.55;9.50;;;;;;;-0.90;100.00;93940.00;5088949;28;21214;-59
2021/11/28 03:05:51;;;;;;;10.27;9.07;;;;;;;-0.88;100.00;93940.75;5090892;28;20085;-60
2021/11/28 03:08:17;;;;;;;9.55;8.63;;;;;;;-0.88;100.00;93944.13;5088202;28;20028;-60
2021/11/28 03:10:46;;;;;;;13.98;10.82;;;;;;;-0.85;100.00;93947.44;5090632;28;20077;-59
2021/11/28 03:13:22;;;;;;;10.43;9.27;;;;;;;-0.85;100.00;93945.69;5091444;28;20537;-60
2021/11/28 03:15:50;;;;;;;10.15;9.23;;;;;;;-0.83;100.00;93945.53;5096092;28;20040;-60
2021/11/28 03:18:19;;;;;;;9.40;8.30;;;;;;;-0.84;100.00;93949.91;5104587;28;20031;-60
2021/11/28 03:20:47;;;;;;;8.07;7.47;;;;;;;-0.88;100.00;93941.56;5095848;28;20482;-60
2021/11/28 03:23:14;;;;;;;8.70;7.90;;;;;;;-0.90;100.00;93937.44;5076694;28;20028;-60
2021/11/28 03:25:40;;;;;;;10.80;9.80;;;;;;;-0.90;100.00;93943.44;5093667;28;20080;-60
2021/11/28 03:28:10;;;;;;;10.48;9.48;;;;;;;-0.88;100.00;93943.34;5101405;28;20508;-60
2021/11/28 03:30:36;;;;;;;11.05;9.95;;;;;;;-0.84;100.00;93941.31;5092499;28;20560;-59
2021/11/28 03:33:01;;;;;;;10.68;9.73;;;;;;;-0.84;100.00;93936.16;5093682;28;20058;-60
2021/11/28 03:35:26;;;;;;;8.98;8.13;;;;;;;-0.88;100.00;93941.56;5093786;28;20043;-60
2021/11/28 03:37:52;;;;;;;9.90;8.80;;;;;;;-0.92;100.00;93939.31;5097569;28;20028;-59
2021/11/28 03:40:17;;;;;;;10.13;9.13;;;;;;;-0.85;100.00;93947.44;5107581;28;20020;-60
2021/11/28 03:42:43;;;;;;;9.70;8.80;;;;;;;-0.68;100.00;93941.81;5080153;28;20537;-60
2021/11/28 03:45:11;;;;;;;8.63;7.85;;;;;;;-0.61;100.00;93939.59;5091235;28;20081;-60
2021/11/28 03:47:37;;;;;;;8.18;7.40;;;;;;;-0.64;100.00;93940.63;5102377;28;20494;-60
2021/11/28 03:50:05;;;;;;;9.00;8.13;;;;;;;-0.73;100.00;93933.59;5089692;28;20032;-60
2021/11/28 03:52:31;;;;;;;7.65;6.95;;;;;;;-0.79;100.00;93937.47;5098673;28;20031;-60
2021/11/28 03:54:56;;;;;;;6.65;6.10;;;;;;;-0.80;100.00;93934.97;5098664;28;20028;-60
2021/11/28 03:57:22;;;;;;;6.80;6.10;;;;;;;-0.90;100.00;93935.69;5093953;28;20036;-60
2021/11/28 03:59:48;;;;;;;6.47;5.95;;;;;;;-0.93;100.00;93941.09;5094294;28;20023;-59
2021/11/28 04:02:13;;;;;;;5.00;4.60;;;;;;;-0.79;100.00;93944.38;5101224;28;20028;-60
2021/11/28 04:04:39;;;;;;;5.20;4.80;;;;;;;-0.83;100.00;93940.38;5093912;28;20024;-60
2021/11/28 04:07:04;;;;;;;5.40;5.03;;;;;;;-0.82;100.00;93937.69;5092267;28;20039;-60
2021/11/28 04:09:29;;;;;;;5.15;4.80;;;;;;;-0.83;100.00;93943.81;5100435;28;20028;-59
2021/11/28 04:11:55;;;;;;;4.70;4.40;;;;;;;-0.83;100.00;93943.81;5101065;28;20020;-59
2021/11/28 04:14:20;;;;;;;5.50;5.10;;;;;;;-0.83;100.00;93940.38;5098778;28;20032;-60
2021/11/28 04:16:46;;;;;;;5.90;5.43;;;;;;;-0.82;100.00;93942.03;5099210;28;20032;-60
2021/11/28 04:19:11;;;;;;;6.38;5.88;;;;;;;-0.63;100.00;93950.03;5091639;28;20099;-60
2021/11/28 04:21:41;;;;;;;7.43;6.72;;;;;;;-0.67;100.00;93935.69;5091354;28;20494;-59
2021/11/28 04:24:07;;;;;;;6.10;5.70;;;;;;;-0.75;100.00;93950.97;5096747;28;20044;-60
2021/11/28 04:26:32;;;;;;;7.72;6.90;;;;;;;-0.82;100.00;93954.94;5095548;28;20039;-59
2021/11/28 04:28:58;;;;;;;8.60;7.22;;;;;;;-0.80;100.00;93953.06;5102274;28;20040;-60
2021/11/28 04:31:23;;;;;;;12.68;8.98;;;;;;;-0.92;100.00;93942.72;5093807;28;20062;-59
2021/11/28 04:33:48;;;;;;;10.35;7.78;;;;;;;-0.89;100.00;93947.66;5086099;28;20043;-60
2021/11/28 04:36:14;;;;;;;9.55;8.32;;;;;;;-0.91;100.00;93954.72;5092379;28;20567;-59
2021/11/28 04:38:39;;;;;;;11.15;8.60;;;;;;;-0.93;100.00;93951.41;5098693;28;20035;-60
2021/11/28 04:41:05;;;;;;;16.02;10.27;;;;;;;-0.94;100.00;93951.53;5093136;28;20688;-60
2021/11/28 04:43:30;;;;;;;12.13;10.25;;;;;;;-0.85;100.00;93958.59;5093645;28;20456;-60
2021/11/28 04:45:56;;;;;;;12.60;10.25;;;;;;;-0.85;100.00;93950.84;5095436;28;20107;-61
2021/11/28 04:48:21;;;;;;;10.70;8.77;;;;;;;-0.72;100.00;93961.09;5092516;28;20028;-59
2021/11/28 04:50:46;;;;;;;11.27;10.07;;;;;;;-0.73;100.00;93957.66;5093328;28;20143;-60
2021/11/28 04:53:12;;;;;;;12.27;10.43;;;;;;;-0.47;100.00;93954.03;5097611;28;20067;-59
2021/11/28 04:55:37;;;;;;;9.85;8.85;;;;;;;-0.65;100.00;93957.09;5094557;28;20127;-59
2021/11/28 04:58:03;;;;;;;10.80;9.38;;;;;;;-0.78;100.00;93958.94;5097305;28;20040;-59
2021/11/28 05:00:29;;;;;;;8.85;8.05;;;;;;;-0.52;100.00;93956.97;5090772;28;20039;-60
2021/11/28 05:02:55;;;;;;;9.27;8.38;;;;;;;-0.84;100.00;93962.81;5096908;28;20039;-60
2021/11/28 05:05:22;;;;;;;9.68;8.77;;;;;;;-0.91;100.00;93956.44;5092472;28;20028;-59
2021/11/28 05:07:47;;;;;;;10.15;9.13;;;;;;;-0.92;100.00;93965.97;5095473;28;20038;-60
2021/11/28 05:10:13;;;;;;;9.63;8.73;;;;;;;-0.92;100.00;93960.81;5090033;28;20497;-60
2021/11/28 05:12:39;;;;;;;10.02;9.23;;;;;;;-0.98;100.00;93960.44;5093283;28;20043;-60
2021/11/28 05:15:05;;;;;;;9.32;8.35;;;;;;;-1.02;100.00;93965.00;5091610;28;20043;-60
2021/11/28 05:17:30;;;;;;;9.68;8.77;;;;;;;-0.99;100.00;93971.72;5092390;28;20039;-59
2021/11/28 05:19:56;;;;;;;9.40;8.70;;;;;;;-0.94;100.00;93973.03;5086754;28;20441;-59
2021/11/28 05:22:21;;;;;;;9.65;8.85;;;;;;;-0.93;100.00;93969.50;5095190;28;20090;-60
2021/11/28 05:24:50;;;;;;;8.45;7.75;;;;;;;-0.91;100.00;93977.97;5090926;28;20020;-60
2021/11/28 05:27:16;;;;;;;8.77;8.07;;;;;;;-0.88;100.00;93967.41;5090986;28;20024;-62
2021/11/28 05:29:42;;;;;;;9.65;8.85;;;;;;;-0.71;100.00;93970.47;5095165;28;20530;-59
2021/11/28 05:32:07;;;;;;;11.10;10.10;;;;;;;-0.75;100.00;93974.25;5093169;28;20036;-59
2021/11/28 05:34:33;;;;;;;9.18;8.43;;;;;;;-0.62;100.00;93972.34;5091860;28;20043;-60
2021/11/28 05:36:58;;;;;;;8.55;7.85;;;;;;;-0.78;100.00;93984.78;5092640;28;20546;-60
2021/11/28 05:39:24;;;;;;;8.73;8.02;;;;;;;-0.85;100.00;93978.44;5090728;28;20028;-59
2021/11/28 05:41:49;;;;;;;9.27;8.57;;;;;;;-0.93;100.00;93981.59;5092412;28;20028;-59
2021/11/28 05:44:15;;;;;;;8.82;8.15;;;;;;;-0.96;100.00;93980.06;5092468;28;20056;-59
2021/11/28 05:46:40;;;;;;;9.18;8.45;;;;;;;-0.63;100.00;93973.28;5094475;28;20117;-60
2021/11/28 05:49:06;;;;;;;9.70;8.90;;;;;;;-0.74;100.00;93968.13;5089238;28;20458;-60
2021/11/28 05:51:31;;;;;;;10.27;9.45;;;;;;;-0.85;100.00;93973.25;5101514;28;20071;-60
2021/11/28 05:53:56;;;;;;;10.80;9.68;;;;;;;-0.95;100.00;93976.56;5091369;28;20037;-60
2021/11/28 05:56:22;;;;;;;17.83;13.73;;;;;;;-0.98;100.00;93970.78;5098393;28;20050;-59
2021/11/28 05:58:47;;;;;;;14.30;12.43;;;;;;;-0.99;100.00;93975.13;5097748;28;20063;-59
2021/11/28 06:01:13;;;;;;;12.00;10.70;;;;;;;-0.98;100.00;93981.09;5098351;28;20040;-60
2021/11/28 06:03:38;;;;;;;11.05;9.93;;;;;;;-1.00;100.00;93988.97;5092802;28;20040;-60
2021/11/28 06:06:04;;;;;;;10.88;9.80;;;;;;;-1.03;100.00;93984.03;5099684;28;20755;-60
2021/11/28 06:08:29;;;;;;;9.18;8.45;;;;;;;-1.04;100.00;93977.22;5097714;28;20119;-60
2021/11/28 06:10:55;;;;;;;10.73;9.82;;;;;;;-1.05;100.00;93979.00;5103329;28;20055;-60
2021/11/28 06:13:21;;;;;;;10.77;9.77;;;;;;;-1.03;100.00;93969.38;5101968;28;20115;-60
2021/11/28 06:15:46;;;;;;;11.40;10.30;;;;;;;-1.01;100.00;93972.66;5095961;28;20036;-60
2021/11/28 06:18:12;;;;;;;11.20;10.20;;;;;;;-1.04;100.00;93969.47;5097104;28;20156;-60
2021/11/28 06:20:38;;;;;;;12.13;11.13;;;;;;;-1.08;100.00;93968.06;5097567;28;20040;-59
2021/11/28 06:23:04;;;;;;;10.93;10.02;;;;;;;-1.13;100.00;93975.31;5097281;28;20032;-60
2021/11/28 06:25:29;;;;;;;10.57;9.75;;;;;;;-1.15;100.00;93975.41;5097023;28;20039;-60
2021/11/28 06:27:55;;;;;;;10.23;9.13;;;;;;;-1.12;100.00;93974.38;5095309;28;20064;-60
2021/11/28 06:30:21;;;;;;;6.50;6.00;;;;;;;-1.09;100.00;93966.41;5105355;28;20068;-60
2021/11/28 06:32:46;;;;;;;4.35;4.05;;;;;;;-1.06;100.00;93964.44;5095856;28;20481;-60
2021/11/28 06:35:12;;;;;;;4.88;4.57;;;;;;;-1.07;100.00;93969.69;5094367;28;20036;-60
2021/11/28 06:37:37;;;;;;;11.30;8.70;;;;;;;-1.09;100.00;93974.16;5097801;28;20035;-60
2021/11/28 06:40:06;;;;;;;10.50;9.50;;;;;;;-1.10;100.00;93972.50;5095485;28;20063;-58
2021/11/28 06:42:32;;;;;;;8.43;7.63;;;;;;;-1.10;100.00;93975.94;5095635;28;20028;-60
2021/11/28 06:44:57;;;;;;;8.25;7.45;;;;;;;-1.10;100.00;93978.50;5091009;28;20063;-59
2021/11/28 06:47:23;;;;;;;6.80;6.20;;;;;;;-1.07;100.00;93967.94;5093678;28;20690;-60
2021/11/28 06:49:48;;;;;;;6.60;6.07;;;;;;;-1.10;100.00;93972.50;5090880;28;20060;-59
2021/11/28 06:52:14;;;;;;;6.15;5.65;;;;;;;-1.10;100.00;93978.50;5064392;28;20395;-60
2021/11/28 06:54:40;;;;;;;6.30;5.85;;;;;;;-1.12;100.00;93976.97;5101492;28;20050;-59
2021/11/28 06:57:05;;;;;;;6.72;6.22;;;;;;;-1.16;100.00;93972.03;5096226;28;20426;-59
2021/11/28 06:59:31;;;;;;;6.20;5.75;;;;;;;-1.10;100.00;93975.09;5092206;28;20062;-60
2021/11/28 07:01:57;;;;;;;6.95;6.45;;;;;;;-1.07;100.00;93985.19;5092841;28;20036;-60
2021/11/28 07:04:22;;;;;;;6.20;5.70;;;;;;;-1.05;100.00;93975.56;5092786;28;20837;-59
2021/11/28 07:06:48;;;;;;;6.95;6.45;;;;;;;-1.07;100.00;93982.59;5090836;28;20618;-58
2021/11/28 07:09:14;;;;;;;5.68;5.28;;;;;;;-1.04;100.00;93982.38;5083352;28;20028;-60
2021/11/28 07:11:39;;;;;;;11.70;10.52;;;;;;;-0.90;100.00;93989.94;5096862;28;20033;-59
2021/11/28 07:14:06;;;;;;;20.58;18.00;;;;;;;-0.87;100.00;93988.91;5082798;28;20149;-60
2021/11/28 07:16:31;;;;;;;32.35;27.13;;;;;;;-0.93;100.00;93989.34;5088540;28;20043;-58
2021/11/28 07:18:57;;;;;;;66.13;47.10;;;;;;;-0.94;100.00;93992.84;5089260;28;20027;-60
2021/11/28 07:21:22;;;;;;;39.38;31.27;;;;;;;-0.77;100.00;93996.78;5088954;28;20040;-60
2021/11/28 07:23:48;;;;;;;13.93;11.98;;;;;;;-0.88;100.00;93995.81;5087603;28;20103;-61
2021/11/28 07:26:15;;;;;;;9.50;8.70;;;;;;;-0.93;100.00;94004.84;5087457;28;20048;-60
2021/11/28 07:28:41;;;;;;;8.20;7.50;;;;;;;-0.98;100.00;94001.78;5090079;28;20582;-61
2021/11/28 07:31:07;;;;;;;9.10;8.40;;;;;;;-0.95;100.00;94002.38;5088226;28;20032;-60
2021/11/28 07:33:36;;;;;;;10.60;9.70;;;;;;;-0.95;100.00;93998.97;5090592;28;20515;-61
2021/11/28 07:36:02;;;;;;;11.07;10.07;;;;;;;-0.94;100.00;94000.59;5088937;28;20036;-60
2021/11/28 07:38:28;;;;;;;11.65;10.57;;;;;;;-0.95;100.00;94001.53;5089286;28;20024;-61
2021/11/28 07:40:53;;;;;;;13.32;12.13;;;;;;;-0.93;100.00;94012.59;5092696;28;20510;-60
2021/11/28 07:43:18;;;;;;;14.95;13.45;;;;;;;-0.89;100.00;94011.41;5091916;28;20132;-60
2021/11/28 07:45:44;;;;;;;15.48;13.93;;;;;;;-0.91;100.00;94008.13;5091155;28;20023;-60
2021/11/28 07:48:10;;;;;;;14.10;12.73;;;;;;;-0.92;100.00;94016.81;5089552;28;20031;-59
2021/11/28 07:50:36;;;;;;;13.57;12.25;;;;;;;-0.90;100.00;94020.09;5093841;28;20028;-61
2021/11/28 07:53:01;;;;;;;16.73;15.18;;;;;;;-0.88;100.00;94021.66;5088727;28;20137;-62
2021/11/28 07:55:27;;;;;;;20.30;18.23;;;;;;;-0.80;100.00;94020.25;5090022;28;20121;-62
2021/11/28 07:57:52;;;;;;;28.77;25.67;;;;;;;-0.58;100.00;94022.06;5092834;28;20066;-62
2021/11/28 08:00:18;;;;;;;29.50;24.05;;;;;;;-0.54;100.00;94025.25;5091597;28;20029;-61
2021/11/28 08:02:43;;;;;;;18.85;16.85;;;;;;;-0.60;100.00;94018.78;5101566;28;20036;-61
2021/11/28 08:05:09;;;;;;;14.75;13.15;;;;;;;-0.59;100.00;94033.34;5091390;28;20039;-62
2021/11/28 08:07:34;;;;;;;14.88;13.45;;;;;;;-0.66;100.00;94035.56;5098535;28;20023;-61
2021/11/28 08:10:00;;;;;;;10.57;9.68;;;;;;;-0.73;100.00;94036.97;5088385;28;20055;-62
2021/11/28 08:12:25;;;;;;;9.75;8.95;;;;;;;-0.77;100.00;94044.13;5086750;28;20032;-61
2021/11/28 08:14:51;;;;;;;9.85;8.98;;;;;;;-0.79;100.00;94038.25;5095447;28;20020;-62
2021/11/28 08:17:17;;;;;;;7.82;7.22;;;;;;;-0.67;100.00;94041.69;5096589;28;20405;-61
2021/11/28 08:19:43;;;;;;;8.43;7.65;;;;;;;-0.74;100.00;94041.31;5090120;28;20048;-62
2021/11/28 08:22:09;;;;;;;10.88;9.73;;;;;;;-0.48;100.00;94048.88;5087314;28;20037;-61
2021/11/28 08:24:35;;;;;;;10.48;9.20;;;;;;;-0.25;100.00;94046.31;5088963;28;20032;-62
2021/11/28 08:27:00;;;;;;;8.57;7.85;;;;;;;-0.28;100.00;94045.75;5089618;28;20136;-61
2021/11/28 08:29:27;;;;;;;8.90;8.13;;;;;;;-0.30;100.00;94049.25;5011755;28;20143;-60
2021/11/28 08:31:52;;;;;;;8.88;8.18;;;;;;;-0.23;100.00;94061.72;5043632;28;20068;-61
2021/11/28 08:34:18;;;;;;;9.00;8.30;;;;;;;-0.49;100.00;94065.31;5028108;28;20120;-61
2021/11/28 08:36:44;;;;;;;9.02;8.20;;;;;;;-0.64;100.00;94066.50;5063793;28;20045;-61
2021/11/28 08:39:09;;;;;;;8.40;7.70;;;;;;;-0.46;100.00;94065.09;5061127;28;20510;-60
2021/11/28 10:38:14;;;;;;;5.70;5.20;;;;;;;-0.11;100.00;94106.53;6137466;22;2066064;-62
2021/11/28 10:40:45;;;;;;;6.35;5.80;;;;;;;-0.11;100.00;94103.94;6206251;23;20100;-64
2021/11/28 10:43:14;;;;;;;2.85;2.65;;;;;;;-0.16;100.00;94105.13;6204191;23;20403;-62
2021/11/28 10:45:48;;;;;;;3.10;2.90;;;;;;;-0.02;100.00;94098.06;6206099;23;20004;-64
2021/11/28 10:48:21;;;;;;;9.65;8.70;;;;;;;-0.13;99.96;94103.25;6206533;23;20009;-64
2021/11/28 10:50:47;;;;;;;8.15;7.45;;;;;;;-0.41;100.00;94103.53;6206563;23;20004;-64
2021/11/28 10:53:22;;;;;;;6.65;6.07;;;;;;;-0.61;100.00;94097.28;6205339;23;20444;-64
2021/11/28 10:55:58;;;;;;;4.57;4.20;;;;;;;-0.13;100.00;94100.66;6205906;23;20008;-64
2021/11/28 10:58:30;;;;;;;5.72;5.30;;;;;;;-0.10;100.00;94096.09;6204831;23;20714;-63
2021/11/28 11:01:09;;;;;;;4.65;4.32;;;;;;;-0.12;100.00;94102.31;6204900;23;20013;-64
2021/11/28 11:03:49;;;;;;;4.78;4.40;;;;;;;-0.31;100.00;94101.94;6204901;23;20317;-63
2021/11/28 11:06:19;;;;;;;8.82;6.30;;;;;;;-0.53;100.00;94107.06;6206418;23;20031;-64
2021/11/28 11:08:47;;;;;;;4.93;4.53;;;;;;;-0.59;100.00;94103.97;6179870;23;20479;-65
2021/11/28 11:11:15;;;;;;;4.75;4.38;;;;;;;-0.45;100.00;94104.72;6205959;23;20005;-63
2021/11/28 11:14:00;;;;;;;6.88;5.57;;;;;;;-0.46;100.00;94103.06;6205045;23;20348;-64
2021/11/28 11:16:51;;;;;;;8.18;5.57;;;;;;;-0.32;100.00;94099.44;6178415;23;20031;-63
2021/11/28 11:19:27;;;;;;;3.60;3.30;;;;;;;-0.63;100.00;94094.78;6210157;23;20360;-62
2021/11/28 11:22:06;;;;;;;5.63;4.53;;;;;;;-0.65;100.00;94096.66;6206914;23;20008;-65
2021/11/28 11:24:34;;;;;;;5.95;5.40;;;;;;;-0.59;100.00;94096.22;6206997;23;20015;-64
2021/11/28 11:27:15;;;;;;;5.60;5.03;;;;;;;-0.66;100.00;94097.59;6206881;23;20008;-66
2021/11/28 11:29:47;;;;;;;4.65;4.35;;;;;;;-0.41;100.00;94105.31;6206985;23;20341;-66
2021/11/28 11:32:13;;;;;;;2.92;2.83;;;;;;;-0.44;100.00;94099.44;6205409;23;20012;-66
2021/11/28 11:34:39;;;;;;;3.97;3.72;;;;;;;-0.42;100.00;94107.06;6206492;23;20004;-66
2021/11/28 11:37:12;;;;;;;4.70;4.30;;;;;;;-0.33;100.00;94109.00;6207296;23;20015;-64
2021/11/28 11:39:40;;;;;;;3.38;3.17;;;;;;;-0.48;100.00;94108.34;6206664;23;20023;-64
2021/11/28 11:42:06;;;;;;;3.53;3.33;;;;;;;-0.54;100.00;94113.16;6206996;23;20015;-64
2021/11/28 11:44:33;;;;;;;3.28;3.08;;;;;;;-0.63;100.00;94115.47;6207412;22;20054;-65
2021/11/28 11:46:59;;;;;;;3.60;3.40;;;;;;;-0.56;100.00;94115.84;6206911;23;20390;-64
2021/11/28 11:49:25;;;;;;;3.53;3.33;;;;;;;-0.67;100.00;94115.78;6207260;22;20011;-65
2021/11/28 11:51:51;;;;;;;4.63;4.22;;;;;;;-0.49;100.00;94124.78;6206193;23;20009;-64
2021/11/28 11:54:27;;;;;;;4.25;3.95;;;;;;;-0.44;100.00;94121.88;6206864;23;20336;-63
2021/11/28 11:57:18;;;;;;;5.78;5.00;;;;;;;-0.60;100.00;94119.59;6206601;23;20012;-66
2021/11/28 12:00:13;;;;;;;4.90;4.50;;;;;;;-0.33;100.00;94121.09;6207033;23;20133;-65
2021/11/28 12:02:55;;;;;;;4.55;4.15;;;;;;;-0.46;100.00;94116.81;6206735;23;20050;-67
2021/11/28 12:05:30;;;;;;;6.22;5.63;;;;;;;-0.36;100.00;94129.06;6206713;23;20040;-65
2021/11/28 12:08:25;;;;;;;5.13;4.80;;;;;;;-0.32;100.00;94122.72;6206453;23;20016;-65
2021/11/28 12:11:02;;;;;;;5.85;5.43;;;;;;;-0.55;100.00;94120.09;6198086;23;20019;-66
2021/11/28 12:13:27;;;;;;;6.05;5.55;;;;;;;-0.29;100.00;94122.50;6206322;23;20340;-65
2021/11/28 12:15:54;;;;;;;7.10;6.50;;;;;;;-0.49;100.00;94117.03;6206549;23;20004;-65
2021/11/28 12:18:34;;;;;;;6.28;5.78;;;;;;;-0.54;100.00;94110.56;6207194;23;20448;-68
2021/11/28 12:21:04;;;;;;;9.40;8.50;;;;;;;-0.48;100.00;94113.50;6206472;23;20016;-66
2021/11/28 12:23:54;;;;;;;7.40;6.80;;;;;;;-0.69;100.00;94109.91;6206808;23;20349;-68
2021/11/28 12:26:26;;;;;;;4.72;4.32;;;;;;;-0.44;100.00;94109.78;6206501;23;20008;-68
2021/11/28 12:29:12;;;;;;;4.50;4.20;;;;;;;-0.41;100.00;94113.06;6206800;23;20066;-67
2021/11/28 12:31:45;;;;;;;6.60;6.00;;;;;;;-0.46;100.00;94105.66;6238580;22;20019;-67
2021/11/28 12:34:15;;;;;;;8.15;7.45;;;;;;;-0.53;100.00;94109.63;6206577;23;20004;-68
2021/11/28 12:36:44;;;;;;;9.02;8.13;;;;;;;-0.38;100.00;94112.84;6206744;23;20004;-68
2021/11/28 12:39:18;;;;;;;10.38;9.25;;;;;;;-0.50;100.00;94107.63;6206506;23;20464;-66
2021/11/28 12:41:44;;;;;;;7.57;6.97;;;;;;;-0.52;100.00;94106.94;6206134;23;20073;-66
2021/11/28 12:44:13;;;;;;;9.48;8.10;;;;;;;-0.32;100.00;94109.78;6207008;23;20005;-66
2021/11/28 12:46:49;;;;;;;8.52;5.85;;;;;;;-0.42;100.00;94111.44;6206218;23;20049;-66
2021/11/28 12:49:45;;;;;;;3.50;3.30;;;;;;;-0.39;100.00;94112.00;6206945;23;20017;-66
2021/11/28 12:52:22;;;;;;;4.10;3.80;;;;;;;-0.29;100.00;94104.38;6206532;23;20032;-67
2021/11/28 12:55:07;;;;;;;5.45;5.05;;;;;;;-0.24;100.00;94104.84;6206064;23;20482;-67
2021/11/28 12:57:37;;;;;;;9.00;8.18;;;;;;;-0.21;100.00;94104.66;6206677;23;20680;-66
2021/11/28 13:00:24;;;;;;;8.55;7.75;;;;;;;-0.35;100.00;94108.25;6206400;23;20011;-66
2021/11/28 13:03:01;;;;;;;9.70;8.70;;;;;;;-0.45;100.00;94113.28;6206524;23;20005;-66
2021/11/28 13:08:15;;;;;;;9.45;8.55;;;;;;;-0.60;100.00;94109.25;6206400;23;20017;-66
2021/11/28 13:10:46;;;;;;;5.32;4.93;;;;;;;-0.66;100.00;94107.94;6190893;23;20012;-66
2021/11/28 13:13:27;;;;;;;6.78;6.03;;;;;;;-0.80;100.00;94110.69;6206717;23;20005;-66
2021/11/28 13:15:54;;;;;;;8.27;7.47;;;;;;;-0.78;100.00;94109.66;6206050;22;20007;-66
2021/11/28 13:18:25;;;;;;;11.10;7.55;;;;;;;-0.75;100.00;94113.81;6206682;23;20001;-66
2021/11/28 13:20:54;;;;;;;5.40;4.95;;;;;;;-0.55;100.00;94111.50;6205368;23;20322;-66
2021/11/28 13:23:22;;;;;;;4.75;4.45;;;;;;;-0.65;100.00;94114.75;6206416;23;20008;-66
2021/11/28 13:25:55;;;;;;;4.30;4.03;;;;;;;-0.54;100.00;94113.97;6205867;22;20020;-66
2021/11/28 13:28:25;;;;;;;4.78;4.47;;;;;;;-0.41;100.00;94118.25;6207664;23;20459;-66
2021/11/28 13:30:53;;;;;;;6.60;6.10;;;;;;;-0.61;100.00;94115.38;6207524;23;20090;-66